sensor_id;sensor_type;location;lat;lon;timestamp;P1;durP1;ratioP1;P2;durP2;ratioP2
24421;SDS011;12600;53.326;-6.298;2022-07-23T00:02:06;49.53;;;47.00;;
24421;SDS011;12600;53.326;-6.298;2022-07-23T00:04:35;37.30;;;35.22;;
24421;SDS011;12600;53.326;-6.298;2022-07-23T00:07:04;44.15;;;41.88;;
24421;SDS011;12600;53.326;-6.298;2022-07-23T00:09:33;54.38;;;51.45;;
24421;SDS011;12600;53.326;-6.298;2022-07-23T00:12:05;48.38;;;45.85;;
24421;SDS011;12600;53.326;-6.298;2022-07-23T00:14:34;48.67;;;46.25;;
24421;SDS011;12600;53.326;-6.298;2022-07-23T00:17:04;56.92;;;54.08;;
24421;SDS011;12600;53.326;-6.298;2022-07-23T00:19:33;39.20;;;36.85;;
24421;SDS011;12600;53.326;-6.298;2022-07-23T00:22:02;52.30;;;49.78;;
24421;SDS011;12600;53.326;-6.298;2022-07-23T00:24:31;36.42;;;34.55;;
24421;SDS011;12600;53.326;-6.298;2022-07-23T00:27:01;52.50;;;49.90;;
24421;SDS011;12600;53.326;-6.298;2022-07-23T00:29:32;49.33;;;46.80;;
24421;SDS011;12600;53.326;-6.298;2022-07-23T00:32:02;57.83;;;54.97;;
24421;SDS011;12600;53.326;-6.298;2022-07-23T00:34:32;50.65;;;48.00;;
24421;SDS011;12600;53.326;-6.298;2022-07-23T00:37:01;59.85;;;56.80;;
24421;SDS011;12600;53.326;-6.298;2022-07-23T00:39:30;54.80;;;52.03;;
24421;SDS011;12600;53.326;-6.298;2022-07-23T00:42:00;60.03;;;56.97;;
24421;SDS011;12600;53.326;-6.298;2022-07-23T00:44:29;52.47;;;49.88;;
24421;SDS011;12600;53.326;-6.298;2022-07-23T00:47:00;66.90;;;63.67;;
24421;SDS011;12600;53.326;-6.298;2022-07-23T00:49:29;50.47;;;47.85;;
24421;SDS011;12600;53.326;-6.298;2022-07-23T00:52:00;57.10;;;54.22;;
24421;SDS011;12600;53.326;-6.298;2022-07-23T00:54:30;51.03;;;48.40;;
24421;SDS011;12600;53.326;-6.298;2022-07-23T00:57:00;52.78;;;49.97;;
24421;SDS011;12600;53.326;-6.298;2022-07-23T00:59:29;58.78;;;55.63;;
24421;SDS011;12600;53.326;-6.298;2022-07-23T01:01:59;54.03;;;51.28;;
24421;SDS011;12600;53.326;-6.298;2022-07-23T01:04:29;50.03;;;47.22;;
24421;SDS011;12600;53.326;-6.298;2022-07-23T01:06:58;51.85;;;49.20;;
24421;SDS011;12600;53.326;-6.298;2022-07-23T01:09:28;53.63;;;50.97;;
24421;SDS011;12600;53.326;-6.298;2022-07-23T01:11:57;52.85;;;50.28;;
24421;SDS011;12600;53.326;-6.298;2022-07-23T01:14:28;45.47;;;43.28;;
24421;SDS011;12600;53.326;-6.298;2022-07-23T01:16:57;53.22;;;50.58;;
24421;SDS011;12600;53.326;-6.298;2022-07-23T01:19:28;53.05;;;50.30;;
24421;SDS011;12600;53.326;-6.298;2022-07-23T01:22:00;55.92;;;52.85;;
24421;SDS011;12600;53.326;-6.298;2022-07-23T01:24:33;54.90;;;52.13;;
24421;SDS011;12600;53.326;-6.298;2022-07-23T01:27:06;58.92;;;56.10;;
24421;SDS011;12600;53.326;-6.298;2022-07-23T01:29:37;60.10;;;57.03;;
24421;SDS011;12600;53.326;-6.298;2022-07-23T01:32:12;59.97;;;56.88;;
24421;SDS011;12600;53.326;-6.298;2022-07-23T01:34:42;59.10;;;56.10;;
24421;SDS011;12600;53.326;-6.298;2022-07-23T01:37:12;56.58;;;53.53;;
24421;SDS011;12600;53.326;-6.298;2022-07-23T01:39:43;61.03;;;57.83;;
24421;SDS011;12600;53.326;-6.298;2022-07-23T01:42:13;53.20;;;50.33;;
24421;SDS011;12600;53.326;-6.298;2022-07-23T01:44:44;57.78;;;54.80;;
24421;SDS011;12600;53.326;-6.298;2022-07-23T01:47:18;50.58;;;48.08;;
24421;SDS011;12600;53.326;-6.298;2022-07-23T01:52:38;55.08;;;52.33;;
24421;SDS011;12600;53.326;-6.298;2022-07-23T01:55:09;55.40;;;52.70;;
24421;SDS011;12600;53.326;-6.298;2022-07-23T01:57:47;59.53;;;56.55;;
24421;SDS011;12600;53.326;-6.298;2022-07-23T02:00:20;68.78;;;65.18;;
24421;SDS011;12600;53.326;-6.298;2022-07-23T02:02:51;49.78;;;46.83;;
24421;SDS011;12600;53.326;-6.298;2022-07-23T02:05:21;54.78;;;51.88;;
24421;SDS011;12600;53.326;-6.298;2022-07-23T02:07:51;48.88;;;46.38;;
24421;SDS011;12600;53.326;-6.298;2022-07-23T02:10:23;58.50;;;55.45;;
24421;SDS011;12600;53.326;-6.298;2022-07-23T02:12:52;52.05;;;49.40;;
24421;SDS011;12600;53.326;-6.298;2022-07-23T02:15:22;46.78;;;43.97;;
24421;SDS011;12600;53.326;-6.298;2022-07-23T02:17:51;41.25;;;39.13;;
24421;SDS011;12600;53.326;-6.298;2022-07-23T02:20:21;44.65;;;42.40;;
24421;SDS011;12600;53.326;-6.298;2022-07-23T02:22:50;39.38;;;37.22;;
24421;SDS011;12600;53.326;-6.298;2022-07-23T02:25:22;39.55;;;37.60;;
24421;SDS011;12600;53.326;-6.298;2022-07-23T02:27:57;39.13;;;36.85;;
24421;SDS011;12600;53.326;-6.298;2022-07-23T02:30:26;41.38;;;39.30;;
24421;SDS011;12600;53.326;-6.298;2022-07-23T02:32:55;37.47;;;35.45;;
24421;SDS011;12600;53.326;-6.298;2022-07-23T02:35:25;38.85;;;36.78;;
24421;SDS011;12600;53.326;-6.298;2022-07-23T02:37:57;38.30;;;36.05;;
24421;SDS011;12600;53.326;-6.298;2022-07-23T02:40:28;45.42;;;42.85;;
24421;SDS011;12600;53.326;-6.298;2022-07-23T02:42:58;40.70;;;38.55;;
24421;SDS011;12600;53.326;-6.298;2022-07-23T02:45:28;42.85;;;40.47;;
24421;SDS011;12600;53.326;-6.298;2022-07-23T02:47:58;43.85;;;41.55;;
24421;SDS011;12600;53.326;-6.298;2022-07-23T02:50:27;40.40;;;38.38;;
24421;SDS011;12600;53.326;-6.298;2022-07-23T02:52:58;43.70;;;41.35;;
24421;SDS011;12600;53.326;-6.298;2022-07-23T02:55:29;41.55;;;39.33;;
24421;SDS011;12600;53.326;-6.298;2022-07-23T02:58:01;42.60;;;40.30;;
24421;SDS011;12600;53.326;-6.298;2022-07-23T03:00:30;38.85;;;36.72;;
24421;SDS011;12600;53.326;-6.298;2022-07-23T03:03:00;38.03;;;35.53;;
24421;SDS011;12600;53.326;-6.298;2022-07-23T03:05:30;43.28;;;40.95;;
24421;SDS011;12600;53.326;-6.298;2022-07-23T03:07:59;45.28;;;42.92;;
24421;SDS011;12600;53.326;-6.298;2022-07-23T03:10:30;46.72;;;44.35;;
24421;SDS011;12600;53.326;-6.298;2022-07-23T03:12:59;41.08;;;38.78;;
24421;SDS011;12600;53.326;-6.298;2022-07-23T03:15:28;40.28;;;38.20;;
24421;SDS011;12600;53.326;-6.298;2022-07-23T03:17:58;51.22;;;48.40;;
24421;SDS011;12600;53.326;-6.298;2022-07-23T03:20:29;47.63;;;45.05;;
24421;SDS011;12600;53.326;-6.298;2022-07-23T03:22:58;56.78;;;53.65;;
24421;SDS011;12600;53.326;-6.298;2022-07-23T03:25:30;45.08;;;42.40;;
24421;SDS011;12600;53.326;-6.298;2022-07-23T03:27:59;42.30;;;39.97;;
24421;SDS011;12600;53.326;-6.298;2022-07-23T03:30:29;44.90;;;42.50;;
24421;SDS011;12600;53.326;-6.298;2022-07-23T03:32:59;43.05;;;40.58;;
24421;SDS011;12600;53.326;-6.298;2022-07-23T03:35:28;53.28;;;50.50;;
24421;SDS011;12600;53.326;-6.298;2022-07-23T03:38:14;46.20;;;43.65;;
24421;SDS011;12600;53.326;-6.298;2022-07-23T03:40:45;51.13;;;48.38;;
24421;SDS011;12600;53.326;-6.298;2022-07-23T03:43:14;49.63;;;46.90;;
24421;SDS011;12600;53.326;-6.298;2022-07-23T03:45:45;52.00;;;48.90;;
24421;SDS011;12600;53.326;-6.298;2022-07-23T03:48:15;52.08;;;49.35;;
24421;SDS011;12600;53.326;-6.298;2022-07-23T03:50:44;50.10;;;46.97;;
24421;SDS011;12600;53.326;-6.298;2022-07-23T03:53:13;50.25;;;47.45;;
24421;SDS011;12600;53.326;-6.298;2022-07-23T03:55:43;46.30;;;43.65;;
24421;SDS011;12600;53.326;-6.298;2022-07-23T03:58:13;45.55;;;43.10;;
24421;SDS011;12600;53.326;-6.298;2022-07-23T04:00:43;37.92;;;35.75;;
24421;SDS011;12600;53.326;-6.298;2022-07-23T04:03:12;50.03;;;47.17;;
24421;SDS011;12600;53.326;-6.298;2022-07-23T04:05:42;40.92;;;38.58;;
24421;SDS011;12600;53.326;-6.298;2022-07-23T04:08:14;41.03;;;38.63;;
24421;SDS011;12600;53.326;-6.298;2022-07-23T04:10:50;41.33;;;39.03;;
24421;SDS011;12600;53.326;-6.298;2022-07-23T04:13:21;43.55;;;41.15;;
24421;SDS011;12600;53.326;-6.298;2022-07-23T04:15:50;45.00;;;42.40;;
24421;SDS011;12600;53.326;-6.298;2022-07-23T04:18:20;43.33;;;40.78;;
24421;SDS011;12600;53.326;-6.298;2022-07-23T04:21:01;42.88;;;40.58;;
24421;SDS011;12600;53.326;-6.298;2022-07-23T04:23:31;45.17;;;42.63;;
24421;SDS011;12600;53.326;-6.298;2022-07-23T04:26:01;39.25;;;37.05;;
24421;SDS011;12600;53.326;-6.298;2022-07-23T04:28:31;46.28;;;43.80;;
24421;SDS011;12600;53.326;-6.298;2022-07-23T04:31:02;44.33;;;41.88;;
24421;SDS011;12600;53.326;-6.298;2022-07-23T04:33:33;46.53;;;44.03;;
24421;SDS011;12600;53.326;-6.298;2022-07-23T04:36:05;42.17;;;39.67;;
24421;SDS011;12600;53.326;-6.298;2022-07-23T04:38:35;44.72;;;42.35;;
24421;SDS011;12600;53.326;-6.298;2022-07-23T04:41:06;43.20;;;40.92;;
24421;SDS011;12600;53.326;-6.298;2022-07-23T04:43:35;46.25;;;43.63;;
24421;SDS011;12600;53.326;-6.298;2022-07-23T04:46:05;46.63;;;44.00;;
24421;SDS011;12600;53.326;-6.298;2022-07-23T04:48:42;46.28;;;43.53;;
24421;SDS011;12600;53.326;-6.298;2022-07-23T04:51:12;46.50;;;44.03;;
24421;SDS011;12600;53.326;-6.298;2022-07-23T04:53:41;45.20;;;42.53;;
24421;SDS011;12600;53.326;-6.298;2022-07-23T04:56:13;47.05;;;44.47;;
24421;SDS011;12600;53.326;-6.298;2022-07-23T04:58:42;40.60;;;38.10;;
24421;SDS011;12600;53.326;-6.298;2022-07-23T05:01:12;37.83;;;35.53;;
24421;SDS011;12600;53.326;-6.298;2022-07-23T05:03:41;39.97;;;37.65;;
24421;SDS011;12600;53.326;-6.298;2022-07-23T05:06:11;44.55;;;42.15;;
24421;SDS011;12600;53.326;-6.298;2022-07-23T05:08:40;42.90;;;40.38;;
24421;SDS011;12600;53.326;-6.298;2022-07-23T05:11:10;40.83;;;38.50;;
24421;SDS011;12600;53.326;-6.298;2022-07-23T05:13:42;43.15;;;40.65;;
24421;SDS011;12600;53.326;-6.298;2022-07-23T05:16:11;36.78;;;34.60;;
24421;SDS011;12600;53.326;-6.298;2022-07-23T05:18:42;41.47;;;38.80;;
24421;SDS011;12600;53.326;-6.298;2022-07-23T05:21:11;42.08;;;39.30;;
24421;SDS011;12600;53.326;-6.298;2022-07-23T05:23:41;43.47;;;41.17;;
24421;SDS011;12600;53.326;-6.298;2022-07-23T05:26:10;40.50;;;38.10;;
24421;SDS011;12600;53.326;-6.298;2022-07-23T05:28:41;47.03;;;44.20;;
24421;SDS011;12600;53.326;-6.298;2022-07-23T05:31:26;41.33;;;38.83;;
24421;SDS011;12600;53.326;-6.298;2022-07-23T05:33:56;46.50;;;43.50;;
24421;SDS011;12600;53.326;-6.298;2022-07-23T05:36:25;47.78;;;44.55;;
24421;SDS011;12600;53.326;-6.298;2022-07-23T05:38:57;50.28;;;47.38;;
24421;SDS011;12600;53.326;-6.298;2022-07-23T05:41:30;75.95;;;71.68;;
24421;SDS011;12600;53.326;-6.298;2022-07-23T05:44:02;45.25;;;42.75;;
24421;SDS011;12600;53.326;-6.298;2022-07-23T05:46:33;55.83;;;52.45;;
24421;SDS011;12600;53.326;-6.298;2022-07-23T05:49:06;47.92;;;45.25;;
24421;SDS011;12600;53.326;-6.298;2022-07-23T05:51:54;56.60;;;53.42;;
24421;SDS011;12600;53.326;-6.298;2022-07-23T05:54:34;52.22;;;49.30;;
24421;SDS011;12600;53.326;-6.298;2022-07-23T05:57:05;48.70;;;46.00;;
24421;SDS011;12600;53.326;-6.298;2022-07-23T05:59:34;50.20;;;47.40;;
24421;SDS011;12600;53.326;-6.298;2022-07-23T06:02:04;48.58;;;45.90;;
24421;SDS011;12600;53.326;-6.298;2022-07-23T06:04:34;50.85;;;47.95;;
24421;SDS011;12600;53.326;-6.298;2022-07-23T06:07:21;46.92;;;44.13;;
24421;SDS011;12600;53.326;-6.298;2022-07-23T06:09:51;60.75;;;57.38;;
24421;SDS011;12600;53.326;-6.298;2022-07-23T06:12:23;54.08;;;50.85;;
24421;SDS011;12600;53.326;-6.298;2022-07-23T06:14:53;63.97;;;60.23;;
24421;SDS011;12600;53.326;-6.298;2022-07-23T06:17:22;58.15;;;54.88;;
24421;SDS011;12600;53.326;-6.298;2022-07-23T06:19:52;60.97;;;57.58;;
24421;SDS011;12600;53.326;-6.298;2022-07-23T06:22:22;63.78;;;60.50;;
24421;SDS011;12600;53.326;-6.298;2022-07-23T06:24:51;71.57;;;67.68;;
24421;SDS011;12600;53.326;-6.298;2022-07-23T06:27:23;67.20;;;63.53;;
24421;SDS011;12600;53.326;-6.298;2022-07-23T06:29:52;65.22;;;61.10;;
24421;SDS011;12600;53.326;-6.298;2022-07-23T06:32:22;70.65;;;66.25;;
24421;SDS011;12600;53.326;-6.298;2022-07-23T06:34:51;60.67;;;57.30;;
24421;SDS011;12600;53.326;-6.298;2022-07-23T06:37:21;59.35;;;56.15;;
24421;SDS011;12600;53.326;-6.298;2022-07-23T06:39:51;66.95;;;62.95;;
24421;SDS011;12600;53.326;-6.298;2022-07-23T06:42:20;62.13;;;58.67;;
24421;SDS011;12600;53.326;-6.298;2022-07-23T06:44:56;68.07;;;64.32;;
24421;SDS011;12600;53.326;-6.298;2022-07-23T06:47:28;73.43;;;69.53;;
24421;SDS011;12600;53.326;-6.298;2022-07-23T06:49:58;68.38;;;64.57;;
24421;SDS011;12600;53.326;-6.298;2022-07-23T06:52:27;69.72;;;65.97;;
24421;SDS011;12600;53.326;-6.298;2022-07-23T06:54:56;61.35;;;57.60;;
24421;SDS011;12600;53.326;-6.298;2022-07-23T06:57:27;61.35;;;58.20;;
24421;SDS011;12600;53.326;-6.298;2022-07-23T07:00:00;55.28;;;52.05;;
24421;SDS011;12600;53.326;-6.298;2022-07-23T07:02:30;69.53;;;65.47;;
24421;SDS011;12600;53.326;-6.298;2022-07-23T07:05:00;59.95;;;56.65;;
24421;SDS011;12600;53.326;-6.298;2022-07-23T07:07:32;60.05;;;56.38;;
24421;SDS011;12600;53.326;-6.298;2022-07-23T07:10:02;53.22;;;50.00;;
24421;SDS011;12600;53.326;-6.298;2022-07-23T07:12:37;60.95;;;57.58;;
24421;SDS011;12600;53.326;-6.298;2022-07-23T07:15:06;63.67;;;59.90;;
24421;SDS011;12600;53.326;-6.298;2022-07-23T07:17:36;59.58;;;56.08;;
24421;SDS011;12600;53.326;-6.298;2022-07-23T07:20:06;62.42;;;58.75;;
24421;SDS011;12600;53.326;-6.298;2022-07-23T07:22:37;62.72;;;59.13;;
24421;SDS011;12600;53.326;-6.298;2022-07-23T07:25:07;62.22;;;58.72;;
24421;SDS011;12600;53.326;-6.298;2022-07-23T07:27:38;66.15;;;62.25;;
24421;SDS011;12600;53.326;-6.298;2022-07-23T07:30:08;58.58;;;55.13;;
24421;SDS011;12600;53.326;-6.298;2022-07-23T07:32:39;60.60;;;56.83;;
24421;SDS011;12600;53.326;-6.298;2022-07-23T07:35:25;53.42;;;49.95;;
24421;SDS011;12600;53.326;-6.298;2022-07-23T07:37:54;52.22;;;48.90;;
24421;SDS011;12600;53.326;-6.298;2022-07-23T07:40:24;57.30;;;53.78;;
24421;SDS011;12600;53.326;-6.298;2022-07-23T07:43:01;58.05;;;54.65;;
24421;SDS011;12600;53.326;-6.298;2022-07-23T07:45:31;70.32;;;66.13;;
24421;SDS011;12600;53.326;-6.298;2022-07-23T07:48:00;66.25;;;62.45;;
24421;SDS011;12600;53.326;-6.298;2022-07-23T07:50:32;54.88;;;51.65;;
24421;SDS011;12600;53.326;-6.298;2022-07-23T07:53:01;65.50;;;61.92;;
24421;SDS011;12600;53.326;-6.298;2022-07-23T07:55:34;60.47;;;56.92;;
24421;SDS011;12600;53.326;-6.298;2022-07-23T07:58:05;54.25;;;51.30;;
24421;SDS011;12600;53.326;-6.298;2022-07-23T08:00:35;43.83;;;41.30;;
24421;SDS011;12600;53.326;-6.298;2022-07-23T08:03:09;36.58;;;34.50;;
24421;SDS011;12600;53.326;-6.298;2022-07-23T08:05:41;38.10;;;36.00;;
24421;SDS011;12600;53.326;-6.298;2022-07-23T08:08:12;36.60;;;34.35;;
24421;SDS011;12600;53.326;-6.298;2022-07-23T08:10:43;35.05;;;32.97;;
24421;SDS011;12600;53.326;-6.298;2022-07-23T08:13:14;39.75;;;37.35;;
24421;SDS011;12600;53.326;-6.298;2022-07-23T08:15:44;43.15;;;40.78;;
24421;SDS011;12600;53.326;-6.298;2022-07-23T08:18:14;39.90;;;37.60;;
24421;SDS011;12600;53.326;-6.298;2022-07-23T08:20:43;41.92;;;39.58;;
24421;SDS011;12600;53.326;-6.298;2022-07-23T08:23:13;49.42;;;46.63;;
24421;SDS011;12600;53.326;-6.298;2022-07-23T08:25:45;48.95;;;46.22;;
24421;SDS011;12600;53.326;-6.298;2022-07-23T08:28:16;43.47;;;41.22;;
24421;SDS011;12600;53.326;-6.298;2022-07-23T08:30:45;51.47;;;48.90;;
24421;SDS011;12600;53.326;-6.298;2022-07-23T08:33:15;37.38;;;35.47;;
24421;SDS011;12600;53.326;-6.298;2022-07-23T08:36:00;44.13;;;42.00;;
24421;SDS011;12600;53.326;-6.298;2022-07-23T08:38:32;45.38;;;43.17;;
24421;SDS011;12600;53.326;-6.298;2022-07-23T08:41:02;53.42;;;50.67;;
24421;SDS011;12600;53.326;-6.298;2022-07-23T08:43:36;49.05;;;46.50;;
24421;SDS011;12600;53.326;-6.298;2022-07-23T08:46:07;63.22;;;60.00;;
24421;SDS011;12600;53.326;-6.298;2022-07-23T08:48:37;46.33;;;44.08;;
24421;SDS011;12600;53.326;-6.298;2022-07-23T08:51:07;52.05;;;49.60;;
24421;SDS011;12600;53.326;-6.298;2022-07-23T08:53:37;49.60;;;47.15;;
24421;SDS011;12600;53.326;-6.298;2022-07-23T08:56:08;54.33;;;51.65;;
24421;SDS011;12600;53.326;-6.298;2022-07-23T08:58:38;50.95;;;48.40;;
24421;SDS011;12600;53.326;-6.298;2022-07-23T09:01:08;50.00;;;47.60;;
24421;SDS011;12600;53.326;-6.298;2022-07-23T09:03:37;58.17;;;55.25;;
24421;SDS011;12600;53.326;-6.298;2022-07-23T09:06:06;45.83;;;43.60;;
24421;SDS011;12600;53.326;-6.298;2022-07-23T09:08:36;55.95;;;53.00;;
24421;SDS011;12600;53.326;-6.298;2022-07-23T09:11:08;49.38;;;47.05;;
24421;SDS011;12600;53.326;-6.298;2022-07-23T09:13:40;51.55;;;48.80;;
24421;SDS011;12600;53.326;-6.298;2022-07-23T09:16:14;55.15;;;52.22;;
24421;SDS011;12600;53.326;-6.298;2022-07-23T09:18:48;54.08;;;51.15;;
24421;SDS011;12600;53.326;-6.298;2022-07-23T09:21:21;54.83;;;51.78;;
24421;SDS011;12600;53.326;-6.298;2022-07-23T09:23:54;52.03;;;49.35;;
24421;SDS011;12600;53.326;-6.298;2022-07-23T09:26:31;54.38;;;51.58;;
24421;SDS011;12600;53.326;-6.298;2022-07-23T09:29:05;56.92;;;54.00;;
24421;SDS011;12600;53.326;-6.298;2022-07-23T09:31:44;56.88;;;53.80;;
24421;SDS011;12600;53.326;-6.298;2022-07-23T09:34:17;55.25;;;52.45;;
24421;SDS011;12600;53.326;-6.298;2022-07-23T09:36:51;57.83;;;54.88;;
24421;SDS011;12600;53.326;-6.298;2022-07-23T09:39:24;58.03;;;54.95;;
24421;SDS011;12600;53.326;-6.298;2022-07-23T09:41:56;59.40;;;56.30;;
24421;SDS011;12600;53.326;-6.298;2022-07-23T09:44:27;54.47;;;51.47;;
24421;SDS011;12600;53.326;-6.298;2022-07-23T09:46:58;52.78;;;50.08;;
24421;SDS011;12600;53.326;-6.298;2022-07-23T09:49:29;55.33;;;52.47;;
24421;SDS011;12600;53.326;-6.298;2022-07-23T09:51:58;54.42;;;51.60;;
24421;SDS011;12600;53.326;-6.298;2022-07-23T09:54:30;53.45;;;50.67;;
24421;SDS011;12600;53.326;-6.298;2022-07-23T09:57:04;55.30;;;52.53;;
24421;SDS011;12600;53.326;-6.298;2022-07-23T09:59:43;52.92;;;50.08;;
24421;SDS011;12600;53.326;-6.298;2022-07-23T10:02:14;56.30;;;53.55;;
24421;SDS011;12600;53.326;-6.298;2022-07-23T10:05:05;44.25;;;42.17;;
24421;SDS011;12600;53.326;-6.298;2022-07-23T10:08:04;48.15;;;45.85;;
24421;SDS011;12600;53.326;-6.298;2022-07-23T10:11:12;47.85;;;45.55;;
24421;SDS011;12600;53.326;-6.298;2022-07-23T10:13:59;157.57;;;143.75;;
24421;SDS011;12600;53.326;-6.298;2022-07-23T10:16:51;50.28;;;47.65;;
24421;SDS011;12600;53.326;-6.298;2022-07-23T10:19:21;47.80;;;45.40;;
24421;SDS011;12600;53.326;-6.298;2022-07-23T10:21:51;55.97;;;53.05;;
24421;SDS011;12600;53.326;-6.298;2022-07-23T10:24:28;56.45;;;53.75;;
24421;SDS011;12600;53.326;-6.298;2022-07-23T10:27:19;45.25;;;42.95;;
24421;SDS011;12600;53.326;-6.298;2022-07-23T10:30:15;54.95;;;52.20;;
24421;SDS011;12600;53.326;-6.298;2022-07-23T10:32:53;51.05;;;48.45;;
24421;SDS011;12600;53.326;-6.298;2022-07-23T10:35:44;92.88;;;87.53;;
24421;SDS011;12600;53.326;-6.298;2022-07-23T10:38:22;43.35;;;41.15;;
24421;SDS011;12600;53.326;-6.298;2022-07-23T10:40:57;52.38;;;49.90;;
24421;SDS011;12600;53.326;-6.298;2022-07-23T10:43:28;51.10;;;48.55;;
24421;SDS011;12600;53.326;-6.298;2022-07-23T10:49:21;51.60;;;49.13;;
24421;SDS011;12600;53.326;-6.298;2022-07-23T10:52:15;44.75;;;42.67;;
24421;SDS011;12600;53.326;-6.298;2022-07-23T10:54:51;50.20;;;47.67;;
24421;SDS011;12600;53.326;-6.298;2022-07-23T10:57:23;48.28;;;45.95;;
24421;SDS011;12600;53.326;-6.298;2022-07-23T11:00:16;47.50;;;45.10;;
24421;SDS011;12600;53.326;-6.298;2022-07-23T11:02:51;67.38;;;64.20;;
24421;SDS011;12600;53.326;-6.298;2022-07-23T11:05:25;59.42;;;56.63;;
24421;SDS011;12600;53.326;-6.298;2022-07-23T11:08:12;100.60;;;95.38;;
24421;SDS011;12600;53.326;-6.298;2022-07-23T11:10:48;52.17;;;49.83;;
24421;SDS011;12600;53.326;-6.298;2022-07-23T11:13:28;89.47;;;85.22;;
24421;SDS011;12600;53.326;-6.298;2022-07-23T11:16:19;104.75;;;99.38;;
24421;SDS011;12600;53.326;-6.298;2022-07-23T11:19:06;103.93;;;98.63;;
24421;SDS011;12600;53.326;-6.298;2022-07-23T11:24:25;129.65;;;122.78;;
24421;SDS011;12600;53.326;-6.298;2022-07-23T11:26:56;118.90;;;112.97;;
24421;SDS011;12600;53.326;-6.298;2022-07-23T11:29:37;190.68;;;177.13;;
24421;SDS011;12600;53.326;-6.298;2022-07-23T11:32:24;131.27;;;124.75;;
24421;SDS011;12600;53.326;-6.298;2022-07-23T11:38:06;134.20;;;127.03;;
24421;SDS011;12600;53.326;-6.298;2022-07-23T11:40:42;143.07;;;135.63;;
24421;SDS011;12600;53.326;-6.298;2022-07-23T11:45:44;100.10;;;94.85;;
24421;SDS011;12600;53.326;-6.298;2022-07-23T11:48:17;121.25;;;115.20;;
24421;SDS011;12600;53.326;-6.298;2022-07-23T11:50:48;158.25;;;150.00;;
24421;SDS011;12600;53.326;-6.298;2022-07-23T11:53:24;135.50;;;128.43;;
24421;SDS011;12600;53.326;-6.298;2022-07-23T11:56:02;182.05;;;172.48;;
24421;SDS011;12600;53.326;-6.298;2022-07-23T11:58:33;185.48;;;174.82;;
24421;SDS011;12600;53.326;-6.298;2022-07-23T12:01:03;145.95;;;138.70;;
24421;SDS011;12600;53.326;-6.298;2022-07-23T12:03:32;172.43;;;164.07;;
24421;SDS011;12600;53.326;-6.298;2022-07-23T12:06:02;120.57;;;114.85;;
24421;SDS011;12600;53.326;-6.298;2022-07-23T12:08:34;172.35;;;164.07;;
24421;SDS011;12600;53.326;-6.298;2022-07-23T12:11:11;125.03;;;118.80;;
24421;SDS011;12600;53.326;-6.298;2022-07-23T12:13:41;180.93;;;172.07;;
24421;SDS011;12600;53.326;-6.298;2022-07-23T12:16:10;226.45;;;213.10;;
24421;SDS011;12600;53.326;-6.298;2022-07-23T12:18:40;169.63;;;160.93;;
24421;SDS011;12600;53.326;-6.298;2022-07-23T12:21:09;158.15;;;150.05;;
24421;SDS011;12600;53.326;-6.298;2022-07-23T12:23:40;158.82;;;150.88;;
24421;SDS011;12600;53.326;-6.298;2022-07-23T12:26:15;151.60;;;144.15;;
24421;SDS011;12600;53.326;-6.298;2022-07-23T12:28:51;203.60;;;191.50;;
24421;SDS011;12600;53.326;-6.298;2022-07-23T12:31:25;166.88;;;158.00;;
24421;SDS011;12600;53.326;-6.298;2022-07-23T12:33:55;188.90;;;179.25;;
24421;SDS011;12600;53.326;-6.298;2022-07-23T12:36:36;165.98;;;157.60;;
24421;SDS011;12600;53.326;-6.298;2022-07-23T12:39:09;175.02;;;165.98;;
24421;SDS011;12600;53.326;-6.298;2022-07-23T12:41:52;157.98;;;150.27;;
24421;SDS011;12600;53.326;-6.298;2022-07-23T12:44:23;196.13;;;186.80;;
24421;SDS011;12600;53.326;-6.298;2022-07-23T12:46:52;156.27;;;148.70;;
24421;SDS011;12600;53.326;-6.298;2022-07-23T12:49:25;152.75;;;145.68;;
24421;SDS011;12600;53.326;-6.298;2022-07-23T12:51:56;141.02;;;134.18;;
24421;SDS011;12600;53.326;-6.298;2022-07-23T12:54:27;150.35;;;143.20;;
24421;SDS011;12600;53.326;-6.298;2022-07-23T12:56:57;156.70;;;149.25;;
24421;SDS011;12600;53.326;-6.298;2022-07-23T12:59:30;171.18;;;162.77;;
24421;SDS011;12600;53.326;-6.298;2022-07-23T13:02:00;177.30;;;169.02;;
24421;SDS011;12600;53.326;-6.298;2022-07-23T13:04:29;142.95;;;136.13;;
24421;SDS011;12600;53.326;-6.298;2022-07-23T13:07:01;193.32;;;183.52;;
24421;SDS011;12600;53.326;-6.298;2022-07-23T13:09:33;172.18;;;164.00;;
24421;SDS011;12600;53.326;-6.298;2022-07-23T13:12:09;154.35;;;146.60;;
24421;SDS011;12600;53.326;-6.298;2022-07-23T13:14:38;188.75;;;179.93;;
24421;SDS011;12600;53.326;-6.298;2022-07-23T13:17:08;206.38;;;195.30;;
24421;SDS011;12600;53.326;-6.298;2022-07-23T13:19:39;190.80;;;181.23;;
24421;SDS011;12600;53.326;-6.298;2022-07-23T13:22:08;153.77;;;146.13;;
24421;SDS011;12600;53.326;-6.298;2022-07-23T13:24:39;163.32;;;155.23;;
24421;SDS011;12600;53.326;-6.298;2022-07-23T13:27:08;152.75;;;145.30;;
24421;SDS011;12600;53.326;-6.298;2022-07-23T13:29:39;152.18;;;144.52;;
24421;SDS011;12600;53.326;-6.298;2022-07-23T13:32:11;143.77;;;136.98;;
24421;SDS011;12600;53.326;-6.298;2022-07-23T13:34:41;149.32;;;141.77;;
24421;SDS011;12600;53.326;-6.298;2022-07-23T13:37:11;151.40;;;143.88;;
24421;SDS011;12600;53.326;-6.298;2022-07-23T13:39:41;172.38;;;163.63;;
24421;SDS011;12600;53.326;-6.298;2022-07-23T13:42:13;170.45;;;161.57;;
24421;SDS011;12600;53.326;-6.298;2022-07-23T13:44:42;135.68;;;129.07;;
24421;SDS011;12600;53.326;-6.298;2022-07-23T13:47:11;155.80;;;147.57;;
24421;SDS011;12600;53.326;-6.298;2022-07-23T13:49:40;144.15;;;136.57;;
24421;SDS011;12600;53.326;-6.298;2022-07-23T13:52:10;156.48;;;148.25;;
24421;SDS011;12600;53.326;-6.298;2022-07-23T13:54:39;125.40;;;118.93;;
24421;SDS011;12600;53.326;-6.298;2022-07-23T13:57:10;138.88;;;131.48;;
24421;SDS011;12600;53.326;-6.298;2022-07-23T13:59:40;147.95;;;140.00;;
24421;SDS011;12600;53.326;-6.298;2022-07-23T14:02:09;141.15;;;133.73;;
24421;SDS011;12600;53.326;-6.298;2022-07-23T14:04:51;137.75;;;130.65;;
24421;SDS011;12600;53.326;-6.298;2022-07-23T14:07:21;124.63;;;118.20;;
24421;SDS011;12600;53.326;-6.298;2022-07-23T14:09:51;153.77;;;145.70;;
24421;SDS011;12600;53.326;-6.298;2022-07-23T14:12:21;153.50;;;144.95;;
24421;SDS011;12600;53.326;-6.298;2022-07-23T14:14:50;186.15;;;174.93;;
24421;SDS011;12600;53.326;-6.298;2022-07-23T14:17:19;119.20;;;113.22;;
24421;SDS011;12600;53.326;-6.298;2022-07-23T14:19:52;132.80;;;125.90;;
24421;SDS011;12600;53.326;-6.298;2022-07-23T14:22:21;154.45;;;146.30;;
24421;SDS011;12600;53.326;-6.298;2022-07-23T14:24:52;128.02;;;121.10;;
24421;SDS011;12600;53.326;-6.298;2022-07-23T14:27:23;154.63;;;146.35;;
24421;SDS011;12600;53.326;-6.298;2022-07-23T14:29:54;147.02;;;139.20;;
24421;SDS011;12600;53.326;-6.298;2022-07-23T14:32:24;147.70;;;139.85;;
24421;SDS011;12600;53.326;-6.298;2022-07-23T14:34:53;153.63;;;145.38;;
24421;SDS011;12600;53.326;-6.298;2022-07-23T14:37:25;158.93;;;150.88;;
24421;SDS011;12600;53.326;-6.298;2022-07-23T14:39:59;138.07;;;131.35;;
24421;SDS011;12600;53.326;-6.298;2022-07-23T14:42:30;135.40;;;128.32;;
24421;SDS011;12600;53.326;-6.298;2022-07-23T14:44:59;145.73;;;138.15;;
24421;SDS011;12600;53.326;-6.298;2022-07-23T14:47:36;138.95;;;131.77;;